ΕΜΥ, Εθνική Μετεωρολογική Υπηρεσία - Δελτία Καιρού, Προγνώσεις

ΑΕΡΟΝΑΥΤΙΛΙΑ

GREEK AIRPORTS CODES

TAF LGKC 270800Z 2709/2718 01010KT 9999 FEW020 BECMG 2713/2715 11010KT=

EUROPEAN AIRPORTS CODES